createdAt,value
2019-03-08T00:00:23.197Z,8.17
2019-03-08T00:02:54.232Z,7.03
2019-03-08T00:05:25.104Z,7.07
2019-03-08T00:07:56.020Z,7.33
2019-03-08T00:10:26.925Z,6.60
2019-03-08T00:12:57.828Z,5.87
2019-03-08T00:15:28.715Z,6.27
2019-03-08T00:18:03.498Z,6.20
2019-03-08T00:20:33.345Z,5.90
2019-03-08T00:23:04.406Z,7.60
2019-03-08T00:25:35.294Z,6.90
2019-03-08T00:28:06.195Z,6.57
2019-03-08T00:30:37.081Z,5.87
2019-03-08T00:33:08.018Z,5.27
2019-03-08T00:35:38.894Z,6.20
2019-03-08T00:38:09.811Z,6.13
2019-03-08T00:40:40.711Z,5.73
2019-03-08T00:43:11.603Z,5.70
2019-03-08T00:45:42.490Z,5.53
2019-03-08T00:48:13.442Z,6.00
2019-03-08T00:50:44.330Z,4.83
2019-03-08T00:53:15.812Z,5.30
2019-03-08T00:55:46.934Z,5.07
2019-03-08T00:58:19.461Z,5.10
2019-03-08T01:00:50.384Z,5.87
2019-03-08T01:03:21.344Z,4.87
2019-03-08T01:05:52.295Z,4.93
2019-03-08T01:08:24.067Z,4.70
2019-03-08T01:10:54.946Z,3.97
2019-03-08T01:13:25.851Z,4.80
2019-03-08T01:15:56.748Z,4.30
2019-03-08T01:18:28.864Z,4.03
2019-03-08T01:20:59.868Z,4.73
2019-03-08T01:23:31.096Z,4.20
2019-03-08T01:26:02.131Z,3.87
2019-03-08T01:28:34.296Z,3.07
2019-03-08T01:31:05.512Z,3.53
2019-03-08T01:33:38.395Z,4.07
2019-03-08T01:36:09.408Z,3.30
2019-03-08T01:38:40.658Z,4.07
2019-03-08T01:41:12.026Z,4.07
2019-03-08T01:43:43.156Z,3.73
2019-03-08T01:46:14.432Z,4.17
2019-03-08T01:48:45.753Z,3.17
2019-03-08T01:51:16.971Z,3.10
2019-03-08T01:53:47.908Z,3.50
2019-03-08T01:56:20.268Z,2.90
2019-03-08T01:58:51.215Z,3.03
2019-03-08T02:01:22.081Z,3.30
2019-03-08T02:03:53.809Z,3.20
2019-03-08T02:06:24.759Z,2.60
2019-03-08T02:08:55.671Z,2.93
2019-03-08T02:11:26.558Z,3.40
2019-03-08T02:13:57.475Z,3.17
2019-03-08T02:16:28.356Z,3.17
2019-03-08T02:19:00.381Z,3.20
2019-03-08T02:21:31.259Z,2.73
2019-03-08T02:24:02.177Z,2.67
2019-03-08T02:26:33.051Z,2.87
2019-03-08T02:29:03.971Z,3.00
2019-03-08T02:31:35.231Z,2.87
2019-03-08T02:34:06.185Z,2.63
2019-03-08T02:36:37.071Z,2.93
2019-03-08T02:39:08.884Z,3.40
2019-03-08T02:41:39.758Z,3.47
2019-03-08T02:44:10.835Z,3.33
2019-03-08T02:46:41.721Z,4.30
2019-03-08T02:49:13.489Z,3.93
2019-03-08T02:51:44.387Z,2.80
2019-03-08T02:54:17.641Z,2.47
2019-03-08T02:56:48.527Z,2.60
2019-03-08T02:59:20.233Z,2.60
2019-03-08T03:01:51.121Z,2.53
2019-03-08T03:04:22.074Z,2.60
2019-03-08T03:06:52.949Z,2.80
2019-03-08T03:09:23.861Z,2.50
2019-03-08T03:11:54.739Z,2.57
2019-03-08T03:14:25.648Z,2.00
2019-03-08T03:16:56.524Z,2.80
2019-03-08T03:19:28.249Z,3.40
2019-03-08T03:21:59.130Z,2.80
2019-03-08T03:24:30.043Z,2.30
2019-03-08T03:27:00.921Z,2.40
2019-03-08T03:29:31.820Z,2.53
2019-03-08T03:32:02.706Z,2.43
2019-03-08T03:34:33.791Z,2.60
2019-03-08T03:37:04.666Z,2.93
2019-03-08T03:39:35.571Z,2.70
2019-03-08T03:42:06.454Z,2.97
2019-03-08T03:44:37.380Z,2.57
2019-03-08T03:47:08.258Z,2.70
2019-03-08T03:49:39.198Z,2.63
2019-03-08T03:52:10.072Z,6.93
2019-03-08T03:54:40.991Z,4.97
2019-03-08T03:57:11.871Z,2.80
2019-03-08T03:59:44.382Z,2.67
2019-03-08T04:02:15.351Z,3.60
2019-03-08T04:04:47.147Z,3.00
2019-03-08T04:07:21.844Z,3.00
2019-03-08T04:09:52.838Z,6.70
2019-03-08T04:12:23.785Z,5.03
2019-03-08T04:14:55.159Z,7.97
2019-03-08T04:17:29.582Z,8.20
2019-03-08T04:20:00.727Z,3.37
2019-03-08T04:22:31.662Z,6.00
2019-03-08T04:25:02.607Z,4.70
2019-03-08T04:27:33.545Z,9.47
2019-03-08T04:30:06.861Z,15.20
2019-03-08T04:32:37.748Z,33.23
2019-03-08T04:35:08.714Z,14.43
2019-03-08T04:37:39.601Z,21.70
2019-03-08T04:40:12.333Z,8.40
2019-03-08T04:42:43.193Z,4.03
2019-03-08T04:45:16.418Z,5.30
2019-03-08T04:47:47.300Z,2.90
2019-03-08T04:50:18.233Z,4.83
2019-03-08T04:52:49.103Z,4.50
2019-03-08T04:55:22.156Z,5.03
2019-03-08T04:57:53.201Z,4.80
2019-03-08T05:00:25.718Z,7.93
2019-03-08T05:02:56.590Z,5.23
2019-03-08T05:05:28.337Z,5.00
2019-03-08T05:07:59.263Z,19.30
2019-03-08T05:10:30.186Z,28.17
2019-03-08T05:13:01.086Z,17.20
2019-03-08T05:15:32.009Z,33.47
2019-03-08T05:18:02.932Z,43.37
2019-03-08T05:20:35.513Z,12.10
2019-03-08T05:23:06.406Z,9.50
2019-03-08T05:25:37.334Z,16.40
2019-03-08T05:28:08.221Z,6.87
2019-03-08T05:30:39.140Z,3.57
2019-03-08T05:33:10.016Z,5.10
2019-03-08T05:35:42.599Z,9.27
2019-03-08T05:38:13.487Z,7.77
2019-03-08T05:40:44.416Z,19.53
2019-03-08T05:43:15.317Z,10.47
2019-03-08T05:45:46.235Z,3.47
2019-03-08T05:48:21.393Z,7.03
2019-03-08T05:50:53.148Z,10.10
2019-03-08T05:53:24.039Z,6.73
2019-03-08T05:55:54.939Z,3.50
2019-03-08T05:58:25.828Z,5.23
2019-03-08T06:00:57.711Z,4.90
2019-03-08T06:03:28.590Z,4.10
2019-03-08T06:06:00.371Z,5.37
2019-03-08T06:08:31.251Z,4.93
2019-03-08T06:11:02.155Z,8.60
2019-03-08T06:13:33.048Z,6.93
2019-03-08T06:16:03.974Z,8.20
2019-03-08T06:18:34.849Z,3.60
2019-03-08T06:21:06.776Z,3.00
2019-03-08T06:23:37.658Z,4.40
2019-03-08T06:26:20.275Z,6.17
2019-03-08T06:28:51.164Z,3.60
2019-03-08T06:31:22.090Z,3.73
2019-03-08T06:33:52.967Z,2.60
2019-03-08T06:36:24.905Z,2.80
2019-03-08T06:38:55.810Z,3.05
2019-03-08T06:41:26.725Z,4.37
2019-03-08T06:43:57.615Z,3.60
2019-03-08T06:46:28.540Z,7.97
2019-03-08T06:48:59.517Z,4.95
2019-03-08T06:51:30.459Z,3.47
2019-03-08T06:54:01.355Z,4.20
2019-03-08T06:56:32.267Z,4.10
2019-03-08T06:59:04.793Z,2.90
2019-03-08T07:01:37.587Z,2.98
2019-03-08T07:04:08.488Z,3.00
2019-03-08T07:06:39.513Z,2.27
2019-03-08T07:09:10.408Z,2.60
2019-03-08T07:11:41.368Z,2.98
2019-03-08T07:14:12.514Z,3.02
2019-03-08T07:16:43.435Z,3.40
2019-03-08T07:19:14.321Z,4.22
2019-03-08T07:21:47.091Z,3.52
2019-03-08T07:24:19.625Z,3.37
2019-03-08T07:26:52.189Z,3.83
2019-03-08T07:29:30.838Z,2.77
2019-03-08T07:32:14.350Z,4.20
2019-03-08T07:34:48.924Z,3.80
2019-03-08T07:37:21.641Z,3.15
2019-03-08T07:39:56.881Z,2.90
2019-03-08T07:42:41.679Z,2.65
2019-03-08T07:45:17.219Z,2.92
2019-03-08T07:47:52.810Z,2.70
2019-03-08T07:50:34.251Z,2.60
2019-03-08T07:53:07.035Z,2.80
2019-03-08T07:55:39.562Z,3.30
2019-03-08T07:58:15.027Z,2.35
2019-03-08T08:00:53.675Z,2.77
2019-03-08T08:03:35.134Z,2.27
2019-03-08T08:06:19.521Z,3.08
2019-03-08T08:08:59.105Z,2.22
2019-03-08T08:11:40.520Z,3.70
2019-03-08T08:14:19.032Z,4.25
2019-03-08T08:16:57.550Z,6.60
2019-03-08T08:19:30.121Z,6.78
2019-03-08T08:22:05.616Z,3.35
2019-03-08T08:24:41.206Z,2.72
2019-03-08T08:27:13.738Z,5.75
2019-03-08T08:30:04.617Z,15.68
2019-03-08T08:32:49.288Z,4.35
2019-03-08T08:35:31.162Z,7.05
2019-03-08T08:38:06.847Z,9.73
2019-03-08T08:40:52.568Z,5.95
2019-03-08T08:43:25.101Z,4.83
2019-03-08T08:45:57.667Z,4.45
2019-03-08T08:48:39.059Z,11.08
2019-03-08T08:51:11.631Z,5.80
2019-03-08T08:53:53.159Z,7.43
2019-03-08T08:56:44.558Z,11.50
2019-03-08T08:59:20.343Z,4.77
2019-03-08T09:01:58.875Z,7.43
2019-03-08T09:04:32.179Z,4.07
2019-03-08T09:07:21.173Z,8.37
2019-03-08T09:09:56.401Z,11.10
2019-03-08T09:12:41.544Z,14.87
2019-03-08T09:15:23.766Z,11.43
2019-03-08T09:17:59.343Z,11.97
2019-03-08T09:20:49.980Z,13.27
2019-03-08T09:23:25.638Z,8.47
2019-03-08T09:26:07.382Z,10.07
2019-03-08T09:28:48.977Z,15.40
2019-03-08T09:31:27.532Z,15.10
2019-03-08T09:34:02.786Z,10.70
2019-03-08T09:36:52.564Z,10.60
2019-03-08T09:39:25.151Z,12.33
2019-03-08T09:42:00.415Z,13.40
2019-03-08T09:44:39.059Z,15.50
2019-03-08T09:47:23.518Z,15.00
2019-03-08T09:49:59.389Z,8.37
2019-03-08T09:52:46.961Z,7.77
2019-03-08T09:55:31.786Z,6.30
2019-03-08T09:58:04.309Z,6.10
2019-03-08T10:00:43.096Z,6.40
2019-03-08T10:03:15.909Z,6.20
2019-03-08T10:05:49.475Z,7.90
2019-03-08T10:08:22.022Z,9.17
2019-03-08T10:10:57.292Z,7.50
2019-03-08T10:13:32.554Z,11.93
2019-03-08T10:16:05.967Z,17.25
2019-03-08T10:18:53.730Z,7.28
2019-03-08T10:21:26.313Z,10.57
2019-03-08T10:23:58.844Z,7.13
2019-03-08T10:26:34.630Z,13.77
2019-03-08T10:29:07.172Z,10.23
2019-03-08T10:31:49.321Z,6.47
2019-03-08T10:34:37.064Z,5.17
2019-03-08T10:37:21.761Z,4.00
2019-03-08T10:40:00.400Z,4.80
2019-03-08T10:42:52.277Z,3.25
2019-03-08T10:45:27.620Z,4.78
2019-03-08T10:48:07.003Z,2.50
2019-03-08T10:50:45.586Z,3.93
2019-03-08T10:53:18.149Z,3.37
2019-03-08T10:55:50.959Z,3.07
2019-03-08T10:58:32.693Z,3.70
2019-03-08T11:01:16.978Z,2.90
2019-03-08T11:04:06.092Z,5.67
2019-03-08T11:06:56.044Z,2.58
2019-03-08T11:09:31.102Z,3.20
2019-03-08T11:12:12.353Z,3.17
2019-03-08T11:14:57.136Z,4.22
2019-03-08T11:17:38.702Z,4.85
2019-03-08T11:20:12.401Z,3.58
2019-03-08T11:22:59.976Z,3.65
2019-03-08T11:25:49.130Z,3.62
2019-03-08T11:28:21.777Z,2.52
2019-03-08T11:31:03.583Z,4.20
2019-03-08T11:33:51.556Z,1.90
2019-03-08T11:36:24.947Z,2.35
2019-03-08T11:39:03.218Z,3.00
2019-03-08T11:41:52.182Z,2.45
2019-03-08T11:44:30.445Z,18.35
2019-03-08T11:47:09.128Z,4.08
2019-03-08T11:49:50.038Z,8.28
2019-03-08T11:52:33.869Z,4.03
2019-03-08T11:55:11.160Z,3.67
2019-03-08T11:57:49.598Z,2.62
2019-03-08T12:00:38.557Z,2.08
2019-03-08T12:03:11.098Z,1.82
2019-03-08T12:05:52.382Z,1.80
2019-03-08T12:08:25.867Z,1.90
2019-03-08T12:11:23.015Z,1.50
2019-03-08T12:13:55.598Z,1.85
2019-03-08T12:16:28.118Z,2.02
2019-03-08T12:19:09.719Z,1.50
2019-03-08T12:21:44.944Z,1.47
2019-03-08T12:24:22.517Z,1.50
2019-03-08T12:27:04.752Z,1.87
2019-03-08T12:29:40.444Z,2.15
2019-03-08T12:32:13.020Z,2.08
2019-03-08T12:34:45.654Z,1.97
2019-03-08T12:37:18.262Z,2.10
2019-03-08T12:39:57.541Z,1.98
2019-03-08T12:42:34.417Z,2.37
2019-03-08T12:45:09.919Z,2.90
2019-03-08T12:47:45.154Z,2.53
2019-03-08T12:50:23.675Z,3.47
2019-03-08T12:53:08.893Z,3.90
2019-03-08T12:55:56.863Z,3.87
2019-03-08T12:58:45.870Z,4.30
2019-03-08T13:01:21.170Z,3.27
2019-03-08T13:04:10.124Z,3.83
2019-03-08T13:06:42.683Z,4.10
2019-03-08T13:09:19.453Z,5.57
2019-03-08T13:11:50.387Z,5.97
2019-03-08T13:14:21.293Z,6.13
2019-03-08T13:16:53.093Z,5.60
2019-03-08T13:19:23.992Z,10.37
2019-03-08T13:21:56.816Z,11.33
2019-03-08T13:24:27.703Z,6.87
2019-03-08T13:26:58.662Z,5.10
2019-03-08T13:29:30.815Z,5.77
2019-03-08T13:32:01.735Z,6.53
2019-03-08T13:34:32.808Z,6.37
2019-03-08T13:37:05.514Z,5.77
2019-03-08T13:39:36.403Z,5.27
2019-03-08T13:42:08.221Z,5.23
2019-03-08T13:44:39.117Z,5.20
2019-03-08T13:47:10.029Z,5.13
2019-03-08T13:49:40.917Z,6.03
2019-03-08T13:52:11.842Z,4.40
2019-03-08T13:54:42.753Z,5.10
2019-03-08T13:57:14.586Z,5.53
2019-03-08T13:59:45.502Z,4.80
2019-03-08T14:02:16.426Z,6.37
2019-03-08T14:04:47.310Z,5.13
2019-03-08T14:07:18.224Z,4.80
2019-03-08T14:09:49.894Z,6.60
2019-03-08T14:12:21.738Z,5.53
2019-03-08T14:14:52.635Z,5.27
2019-03-08T14:17:23.548Z,6.20
2019-03-08T14:19:54.433Z,4.93
2019-03-08T14:22:25.348Z,4.67
2019-03-08T14:24:56.248Z,5.53
2019-03-08T14:27:28.082Z,6.73
2019-03-08T14:30:00.327Z,5.40
2019-03-08T14:32:31.731Z,5.90
2019-03-08T14:35:02.911Z,5.37
2019-03-08T14:37:33.951Z,5.00
2019-03-08T14:40:09.702Z,6.00
2019-03-08T14:42:48.031Z,4.73
2019-03-08T14:45:22.220Z,6.07
2019-03-08T14:47:53.122Z,7.03
2019-03-08T14:50:24.016Z,6.60
2019-03-08T14:52:55.777Z,6.80
2019-03-08T14:55:27.703Z,8.17
2019-03-08T14:57:59.110Z,8.53
2019-03-08T15:00:31.477Z,6.03
2019-03-08T15:03:02.430Z,7.00
2019-03-08T15:05:33.321Z,7.10
2019-03-08T15:08:04.307Z,6.53
2019-03-08T15:10:39.625Z,5.37
2019-03-08T15:13:10.385Z,4.43
2019-03-08T15:15:41.273Z,6.07
2019-03-08T15:18:12.193Z,5.47
2019-03-08T15:20:43.080Z,5.27
2019-03-08T15:23:17.120Z,4.87
2019-03-08T15:25:49.030Z,5.90
2019-03-08T15:28:20.110Z,5.23
2019-03-08T15:30:50.992Z,5.53
2019-03-08T15:33:21.914Z,6.43
2019-03-08T15:35:52.934Z,6.53
2019-03-08T15:38:23.967Z,5.03
2019-03-08T15:40:54.885Z,6.60
2019-03-08T15:43:26.662Z,7.40
2019-03-08T15:45:57.567Z,6.60
2019-03-08T15:48:29.399Z,6.47
2019-03-08T15:51:00.349Z,5.70
2019-03-08T15:53:31.510Z,6.70
2019-03-08T15:56:02.426Z,6.07
2019-03-08T15:58:34.257Z,7.17
2019-03-08T16:01:07.980Z,7.30
2019-03-08T16:03:38.570Z,6.30
2019-03-08T16:06:09.500Z,5.00
2019-03-08T16:08:40.850Z,6.73
2019-03-08T16:11:12.932Z,6.87
2019-03-08T16:13:44.923Z,5.80
2019-03-08T16:16:15.956Z,8.33
2019-03-08T16:18:48.218Z,11.07
2019-03-08T16:21:19.235Z,6.13
2019-03-08T16:23:51.774Z,9.37
2019-03-08T16:26:25.263Z,5.20
2019-03-08T16:28:56.378Z,5.90
2019-03-08T16:31:34.473Z,6.80
2019-03-08T16:34:07.231Z,6.23
2019-03-08T16:36:39.527Z,7.23
2019-03-08T16:39:21.207Z,8.33
2019-03-08T16:42:09.810Z,8.73
2019-03-08T16:44:54.957Z,8.47
2019-03-08T16:47:33.140Z,5.17
2019-03-08T16:50:14.084Z,8.70
2019-03-08T16:52:51.901Z,5.87
2019-03-08T16:55:41.510Z,6.83
2019-03-08T16:58:31.362Z,5.90
2019-03-08T17:01:05.263Z,8.70
2019-03-08T17:03:40.751Z,7.40
2019-03-08T17:06:27.162Z,11.37
2019-03-08T17:09:12.138Z,15.43
2019-03-08T17:11:52.364Z,10.67
2019-03-08T17:14:27.932Z,9.77
2019-03-08T17:17:02.135Z,17.30
2019-03-08T17:19:41.052Z,75.37
2019-03-08T17:22:16.697Z,59.70
2019-03-08T17:24:49.249Z,47.20
2019-03-08T17:27:21.835Z,41.37
2019-03-08T17:29:54.377Z,17.00
2019-03-08T17:32:33.673Z,9.47
2019-03-08T17:35:24.642Z,9.43
2019-03-08T17:37:58.066Z,7.43
2019-03-08T17:40:47.071Z,9.13
2019-03-08T17:43:36.064Z,12.50
2019-03-08T17:46:14.789Z,9.37
2019-03-08T17:48:47.402Z,8.73
2019-03-08T17:51:28.959Z,8.17
2019-03-08T17:54:10.782Z,9.37
2019-03-08T17:56:59.487Z,9.13
2019-03-08T17:59:48.186Z,8.10
2019-03-08T18:02:23.533Z,9.23
2019-03-08T18:05:15.767Z,18.47
2019-03-08T18:08:00.343Z,27.97
2019-03-08T18:10:45.320Z,12.00
2019-03-08T18:13:18.745Z,6.83
2019-03-08T18:15:51.313Z,10.43
2019-03-08T18:18:42.111Z,8.60
2019-03-08T18:21:21.360Z,7.17
2019-03-08T18:23:56.851Z,5.70
2019-03-08T18:26:45.482Z,6.13
2019-03-08T18:29:27.002Z,8.53
2019-03-08T18:32:05.662Z,6.10
2019-03-08T18:34:44.315Z,5.90
2019-03-08T18:37:18.588Z,7.17
2019-03-08T18:39:57.332Z,8.17
2019-03-08T18:42:32.945Z,7.93
2019-03-08T18:45:23.380Z,18.43
2019-03-08T18:48:02.356Z,71.73
2019-03-08T18:50:34.905Z,41.30
2019-03-08T18:53:14.255Z,21.10
2019-03-08T18:55:47.179Z,12.17
2019-03-08T18:58:36.282Z,7.70
2019-03-08T19:01:17.741Z,11.23
2019-03-08T19:04:02.477Z,16.73
2019-03-08T19:06:40.889Z,8.77
2019-03-08T19:09:29.586Z,7.83
2019-03-08T19:12:14.081Z,8.20
2019-03-08T19:14:59.369Z,7.50
2019-03-08T19:17:34.850Z,10.60
2019-03-08T19:20:19.476Z,7.13
2019-03-08T19:22:52.066Z,8.87
2019-03-08T19:25:25.564Z,7.17
2019-03-08T19:28:08.767Z,7.63
2019-03-08T19:30:59.045Z,8.30
2019-03-08T19:33:50.347Z,7.17
2019-03-08T19:36:39.241Z,7.80
2019-03-08T19:39:11.873Z,7.47
2019-03-08T19:41:53.463Z,8.87
2019-03-08T19:44:44.737Z,7.50
2019-03-08T19:47:17.314Z,6.13
2019-03-08T19:49:55.486Z,6.93
2019-03-08T19:52:28.062Z,5.63
2019-03-08T19:55:15.860Z,6.70
2019-03-08T19:58:08.678Z,4.50
2019-03-08T20:00:44.186Z,9.77
2019-03-08T20:03:31.734Z,7.07
2019-03-08T20:06:07.349Z,5.37
2019-03-08T20:08:39.941Z,10.43
2019-03-08T20:11:24.485Z,8.00
2019-03-08T20:14:00.943Z,5.43
2019-03-08T20:16:37.045Z,6.63
2019-03-08T20:19:33.082Z,7.63
2019-03-08T20:22:06.974Z,6.73
2019-03-08T20:24:42.273Z,6.30
2019-03-08T20:27:19.358Z,6.37
2019-03-08T20:30:02.175Z,14.07
2019-03-08T20:32:34.697Z,7.57
2019-03-08T20:35:24.389Z,5.50
2019-03-08T20:37:56.921Z,6.97
2019-03-08T20:40:45.899Z,8.40
2019-03-08T20:43:21.539Z,5.93
2019-03-08T20:46:04.176Z,6.90
2019-03-08T20:48:35.059Z,4.97
2019-03-08T20:51:05.984Z,5.00
2019-03-08T20:53:36.895Z,6.27
2019-03-08T20:56:07.832Z,6.70
2019-03-08T20:58:38.722Z,3.93
2019-03-08T21:01:09.688Z,6.63
2019-03-08T21:03:40.966Z,4.03
2019-03-08T21:06:11.875Z,4.43
2019-03-08T21:08:42.766Z,5.23
2019-03-08T21:11:13.698Z,5.97
2019-03-08T21:13:44.591Z,4.57
2019-03-08T21:16:16.441Z,6.00
2019-03-08T21:18:47.345Z,4.03
2019-03-08T21:21:18.271Z,4.10
2019-03-08T21:23:49.165Z,4.30
2019-03-08T21:26:20.086Z,4.10
2019-03-08T21:28:50.980Z,4.00
2019-03-08T21:31:22.743Z,5.07
2019-03-08T21:33:53.632Z,4.37
2019-03-08T21:36:24.548Z,4.60
2019-03-08T21:38:56.490Z,4.20
2019-03-08T21:41:27.409Z,4.97
2019-03-08T21:43:58.308Z,4.57
2019-03-08T21:46:33.106Z,5.20
2019-03-08T21:49:04.002Z,4.47
2019-03-08T21:51:34.919Z,4.03
2019-03-08T21:54:05.827Z,3.90
2019-03-08T21:56:36.759Z,4.57
2019-03-08T21:59:07.649Z,4.40
2019-03-08T22:01:39.551Z,5.20
2019-03-08T22:04:12.082Z,5.50
2019-03-08T22:06:43.005Z,5.07
2019-03-08T22:09:24.366Z,4.93
2019-03-08T22:11:55.288Z,4.77
2019-03-08T22:14:26.180Z,4.40
2019-03-08T22:16:58.283Z,4.23
2019-03-08T22:19:29.181Z,4.40
2019-03-08T22:22:00.268Z,4.80
2019-03-08T22:24:31.169Z,4.03
2019-03-08T22:27:02.090Z,3.00
2019-03-08T22:29:40.394Z,3.37
2019-03-08T22:32:12.416Z,3.67
2019-03-08T22:34:43.299Z,3.77
2019-03-08T22:37:14.234Z,3.53
2019-03-08T22:39:45.125Z,4.00
2019-03-08T22:42:16.039Z,4.13
2019-03-08T22:44:47.002Z,3.97
2019-03-08T22:47:17.933Z,5.20
2019-03-08T22:49:54.525Z,4.00
2019-03-08T22:52:24.604Z,4.50
2019-03-08T22:54:58.335Z,3.10
2019-03-08T22:57:29.245Z,3.40
2019-03-08T23:00:00.315Z,3.47
2019-03-08T23:02:31.360Z,3.40
2019-03-08T23:05:02.266Z,3.60
2019-03-08T23:07:33.252Z,3.60
2019-03-08T23:10:07.158Z,3.87
2019-03-08T23:12:38.075Z,4.10
2019-03-08T23:15:09.573Z,4.23
2019-03-08T23:17:40.526Z,3.17
2019-03-08T23:20:12.195Z,3.27
2019-03-08T23:22:43.173Z,3.60
2019-03-08T23:25:14.068Z,4.10
2019-03-08T23:27:46.629Z,3.87
2019-03-08T23:30:19.190Z,3.73
2019-03-08T23:32:51.134Z,3.33
2019-03-08T23:35:22.030Z,3.70
2019-03-08T23:37:52.935Z,3.10
2019-03-08T23:40:23.830Z,3.73
2019-03-08T23:42:54.744Z,3.70
2019-03-08T23:45:25.644Z,3.83
2019-03-08T23:47:56.593Z,3.37
2019-03-08T23:50:27.568Z,3.17
2019-03-08T23:52:59.631Z,3.20
2019-03-08T23:55:30.454Z,3.17
2019-03-08T23:58:01.369Z,3.00
